Time;durP1;ratioP1;P1;durP2;ratioP2;P2;SDS_P1;SDS_P2;PMS_P1;PMS_P2;Temp;Humidity;BMP_temperature;BMP_pressure;BME280_temperature;BME280_humidity;BME280_pressure;Samples;Min_cycle;Max_cycle;Signal;HPM_P1;HPM_P2
2022/07/11 00:00:10;;;;;;;4.90;3.70;;;;;;;;;;4753807;30;20048;-59
2022/07/11 00:02:42;;;;;;;7.13;5.40;;;;;;;;;;4753693;30;20125;-59
2022/07/11 00:05:10;;;;;;;6.97;4.63;;;;;;;;;;4753599;30;20138;-58
2022/07/11 00:07:37;;;;;;;6.55;5.88;;;;;;;;;;4753472;30;20111;-59
2022/07/11 00:10:05;;;;;;;6.07;5.25;;;;;;;;;;4753443;30;20127;-58
2022/07/11 00:12:34;;;;;;;5.43;3.95;;;;;;;;;;4753673;30;20048;-58
2022/07/11 00:15:01;;;;;;;7.63;4.93;;;;;;;;;;4753496;30;20056;-59
2022/07/11 00:17:28;;;;;;;5.63;4.47;;;;;;;;;;4753279;30;20110;-58
2022/07/11 00:19:56;;;;;;;7.30;5.65;;;;;;;;;;4738056;30;20501;-56
2022/07/11 00:22:23;;;;;;;7.60;4.10;;;;;;;;;;4753558;30;20048;-58
2022/07/11 00:24:50;;;;;;;5.03;3.90;;;;;;;;;;4753560;30;20066;-58
2022/07/11 00:27:17;;;;;;;4.75;3.85;;;;;;;;;;4753266;30;20048;-57
2022/07/11 00:29:45;;;;;;;5.65;4.35;;;;;;;;;;4753351;30;20052;-58
2022/07/11 00:32:12;;;;;;;9.32;7.40;;;;;;;;;;4753261;30;20098;-58
2022/07/11 00:34:39;;;;;;;6.15;4.63;;;;;;;;;;4753232;30;20106;-58
2022/07/11 00:37:06;;;;;;;5.55;4.32;;;;;;;;;;4753358;30;20056;-59
2022/07/11 00:39:34;;;;;;;11.15;8.63;;;;;;;;;;4752996;30;20565;-58
2022/07/11 00:42:03;;;;;;;7.97;6.43;;;;;;;;;;4753098;30;20094;-58
2022/07/11 00:44:30;;;;;;;6.30;4.32;;;;;;;;;;4753066;30;20048;-57
2022/07/11 00:46:57;;;;;;;5.35;3.88;;;;;;;;;;4753061;30;20052;-58
2022/07/11 00:49:25;;;;;;;8.93;4.97;;;;;;;;;;4753165;30;20052;-58
2022/07/11 00:51:52;;;;;;;4.80;4.25;;;;;;;;;;4753291;30;20468;-58
2022/07/11 00:54:22;;;;;;;8.95;7.85;;;;;;;;;;4753128;30;20082;-58
2022/07/11 00:56:50;;;;;;;9.75;7.78;;;;;;;;;;4752722;30;20052;-58
2022/07/11 00:59:19;;;;;;;8.75;7.05;;;;;;;;;;4752689;30;20406;-59
2022/07/11 01:01:46;;;;;;;5.75;4.57;;;;;;;;;;4752461;30;20060;-58
2022/07/11 01:04:14;;;;;;;8.02;4.70;;;;;;;;;;4752673;30;20079;-58
2022/07/11 01:06:41;;;;;;;5.78;5.15;;;;;;;;;;4752850;30;20513;-58
2022/07/11 01:09:09;;;;;;;5.40;4.13;;;;;;;;;;4752492;30;20048;-58
2022/07/11 01:11:36;;;;;;;5.20;3.95;;;;;;;;;;4752496;30;20053;-58
2022/07/11 01:14:03;;;;;;;5.80;4.63;;;;;;;;;;4752772;30;20048;-59
2022/07/11 01:16:30;;;;;;;7.53;5.45;;;;;;;;;;4752287;30;20053;-58
2022/07/11 01:18:58;;;;;;;6.57;4.75;;;;;;;;;;4752326;30;20052;-57
2022/07/11 01:21:39;;;;;;;19.40;13.70;;;;;;;;;;4752618;30;20047;-58
2022/07/11 01:24:09;;;;;;;7.28;5.40;;;;;;;;;;4752378;30;20060;-58
2022/07/11 01:26:36;;;;;;;6.45;4.43;;;;;;;;;;4752747;30;20493;-58
2022/07/11 01:29:09;;;;;;;8.30;6.82;;;;;;;;;;4752514;30;20536;-59
2022/07/11 01:31:41;;;;;;;10.48;8.20;;;;;;;;;;4752402;30;20058;-59
2022/07/11 01:34:09;;;;;;;5.07;4.57;;;;;;;;;;4752181;30;20048;-56
2022/07/11 01:36:36;;;;;;;13.88;9.13;;;;;;;;;;4752385;30;20044;-58
2022/07/11 01:39:04;;;;;;;10.90;7.80;;;;;;;;;;4751838;30;20075;-59
2022/07/11 01:41:31;;;;;;;7.82;6.35;;;;;;;;;;4752084;30;20051;-59
2022/07/11 01:43:59;;;;;;;6.25;5.47;;;;;;;;;;4751873;30;20067;-58
2022/07/11 01:46:26;;;;;;;7.13;5.07;;;;;;;;;;4752213;30;20067;-59
2022/07/11 01:48:54;;;;;;;6.80;5.68;;;;;;;;;;4751905;30;20054;-52
2022/07/11 01:51:23;;;;;;;7.05;5.63;;;;;;;;;;4749034;30;20139;-58
2022/07/11 01:53:50;;;;;;;5.72;4.80;;;;;;;;;;4751884;30;20515;-59
2022/07/11 01:56:18;;;;;;;8.90;7.22;;;;;;;;;;4751913;30;20052;-58
2022/07/11 01:58:49;;;;;;;6.93;5.03;;;;;;;;;;4752013;30;20459;-59
2022/07/11 02:01:17;;;;;;;5.82;5.20;;;;;;;;;;4752128;30;20051;-58
2022/07/11 02:03:44;;;;;;;6.47;5.20;;;;;;;;;;4736805;30;20583;-58
2022/07/11 02:06:12;;;;;;;9.90;7.13;;;;;;;;;;4734174;30;20095;-59
2022/07/11 02:08:40;;;;;;;7.90;7.10;;;;;;;;;;4734178;30;20060;-59
2022/07/11 02:11:09;;;;;;;5.28;4.63;;;;;;;;;;4734317;30;20461;-59
2022/07/11 02:13:36;;;;;;;7.93;6.82;;;;;;;;;;4733967;30;20083;-58
2022/07/11 02:16:04;;;;;;;6.65;5.68;;;;;;;;;;4733342;30;20463;-58
2022/07/11 02:18:34;;;;;;;11.48;8.13;;;;;;;;;;4734161;30;20056;-59
2022/07/11 02:21:02;;;;;;;7.00;6.20;;;;;;;;;;4734185;30;20076;-59
2022/07/11 02:23:30;;;;;;;7.38;5.20;;;;;;;;;;4733931;30;20098;-58
2022/07/11 02:25:57;;;;;;;7.30;6.10;;;;;;;;;;4718371;30;20414;-59
2022/07/11 02:28:24;;;;;;;8.73;7.82;;;;;;;;;;4733841;30;20084;-56
2022/07/11 02:30:51;;;;;;;6.30;5.03;;;;;;;;;;4734296;30;20079;-51
2022/07/11 02:33:19;;;;;;;7.35;6.47;;;;;;;;;;4733865;30;20460;-52
2022/07/11 02:35:46;;;;;;;6.50;4.55;;;;;;;;;;4733724;30;20414;-48
2022/07/11 02:38:15;;;;;;;14.45;10.02;;;;;;;;;;4733470;30;20399;-49
2022/07/11 02:40:44;;;;;;;5.47;4.70;;;;;;;;;;4734537;30;20045;-50
2022/07/11 02:43:12;;;;;;;11.00;8.43;;;;;;;;;;4733529;30;20049;-49
2022/07/11 02:45:40;;;;;;;11.10;7.88;;;;;;;;;;4733788;30;20102;-51
2022/07/11 02:48:07;;;;;;;12.32;8.63;;;;;;;;;;4718383;30;20396;-50
2022/07/11 02:50:35;;;;;;;7.03;6.40;;;;;;;;;;4741030;30;20438;-50
2022/07/11 02:53:02;;;;;;;7.00;5.53;;;;;;;;;;4751345;30;20059;-49
2022/07/11 02:55:30;;;;;;;5.13;4.63;;;;;;;;;;4751090;30;20048;-48
2022/07/11 02:57:58;;;;;;;6.07;5.47;;;;;;;;;;4751140;30;20536;-49
2022/07/11 03:00:25;;;;;;;6.60;5.53;;;;;;;;;;4751096;30;20044;-51
2022/07/11 03:02:53;;;;;;;6.30;5.15;;;;;;;;;;4751364;30;20044;-52
2022/07/11 03:05:20;;;;;;;9.65;8.23;;;;;;;;;;4751869;30;20501;-52
2022/07/11 03:07:48;;;;;;;9.43;6.95;;;;;;;;;;4754666;30;20059;-53
2022/07/11 03:10:15;;;;;;;7.38;6.68;;;;;;;;;;4755340;30;20060;-50
2022/07/11 03:12:43;;;;;;;6.80;5.05;;;;;;;;;;4754759;30;20052;-53
2022/07/11 03:15:11;;;;;;;8.75;6.45;;;;;;;;;;4755449;30;20067;-53
2022/07/11 03:17:38;;;;;;;6.22;5.53;;;;;;;;;;4754324;30;20052;-55
2022/07/11 03:20:06;;;;;;;5.07;4.60;;;;;;;;;;4754474;30;20043;-51
2022/07/11 03:22:36;;;;;;;5.97;5.00;;;;;;;;;;4754496;30;20460;-52
2022/07/11 03:25:05;;;;;;;7.60;6.80;;;;;;;;;;4755182;30;20059;-52
2022/07/11 03:27:34;;;;;;;5.68;5.05;;;;;;;;;;4721307;30;20076;-52
2022/07/11 03:30:02;;;;;;;5.25;4.38;;;;;;;;;;4736557;30;20107;-53
2022/07/11 03:32:30;;;;;;;6.45;4.72;;;;;;;;;;4736709;30;20052;-50
2022/07/11 03:37:43;;;;;;;6.03;4.72;;;;;;;;;;4736998;30;20072;-49
2022/07/11 03:40:13;;;;;;;5.35;4.80;;;;;;;;;;4736414;30;20052;-49
2022/07/11 03:42:41;;;;;;;5.50;4.60;;;;;;;;;;4736602;30;20067;-50
2022/07/11 03:45:08;;;;;;;5.65;4.88;;;;;;;;;;4736631;30;20049;-51
2022/07/11 03:47:36;;;;;;;6.40;4.47;;;;;;;;;;4736025;30;20056;-52
2022/07/11 03:50:04;;;;;;;6.55;5.25;;;;;;;;;;4740179;30;20104;-51
2022/07/11 03:52:32;;;;;;;4.25;3.85;;;;;;;;;;4738679;30;20063;-50
2022/07/11 03:54:59;;;;;;;7.75;6.05;;;;;;;;;;4754069;30;20048;-50
2022/07/11 03:57:27;;;;;;;6.05;5.28;;;;;;;;;;4753583;30;20145;-51
2022/07/11 03:59:54;;;;;;;4.47;4.07;;;;;;;;;;4754088;30;20505;-48
2022/07/11 04:02:21;;;;;;;5.60;3.97;;;;;;;;;;4753975;30;20048;-48
2022/07/11 04:04:48;;;;;;;4.63;4.13;;;;;;;;;;4753782;30;20545;-51
2022/07/11 04:07:15;;;;;;;5.35;4.35;;;;;;;;;;4753678;30;20048;-52
2022/07/11 04:09:44;;;;;;;4.80;3.53;;;;;;;;;;4753736;30;20040;-50
2022/07/11 04:12:11;;;;;;;4.78;4.28;;;;;;;;;;4753809;30;20068;-53
2022/07/11 04:14:38;;;;;;;8.65;3.58;;;;;;;;;;4738667;30;20060;-48
2022/07/11 04:17:06;;;;;;;5.63;4.80;;;;;;;;;;4753046;30;20143;-51
2022/07/11 04:19:33;;;;;;;3.95;3.55;;;;;;;;;;4753521;30;20052;-51
2022/07/11 04:22:00;;;;;;;3.55;3.10;;;;;;;;;;4753570;30;20134;-52
2022/07/11 04:24:27;;;;;;;3.38;2.78;;;;;;;;;;4753844;30;20041;-50
2022/07/11 04:26:55;;;;;;;4.07;3.38;;;;;;;;;;4753347;30;20055;-51
2022/07/11 04:29:23;;;;;;;4.43;3.40;;;;;;;;;;4746610;30;20078;-51
2022/07/11 04:31:51;;;;;;;5.78;3.78;;;;;;;;;;4753642;30;20557;-49
2022/07/11 04:34:18;;;;;;;4.32;3.92;;;;;;;;;;4753159;30;20051;-51
2022/07/11 04:36:46;;;;;;;4.55;3.40;;;;;;;;;;4753282;30;20056;-52
2022/07/11 04:39:13;;;;;;;5.28;4.28;;;;;;;;;;4753043;30;20044;-52
2022/07/11 04:41:40;;;;;;;3.75;3.17;;;;;;;;;;4752709;30;20510;-52
2022/07/11 04:44:07;;;;;;;3.58;3.03;;;;;;;;;;4753033;30;20051;-49
2022/07/11 04:46:35;;;;;;;4.60;3.55;;;;;;;;;;4752964;30;20054;-52
2022/07/11 04:49:02;;;;;;;4.70;3.90;;;;;;;;;;4752756;30;20143;-50
2022/07/11 04:51:29;;;;;;;4.22;3.40;;;;;;;;;;4750150;30;20084;-50
2022/07/11 04:53:57;;;;;;;8.00;3.47;;;;;;;;;;4753321;30;20071;-51
2022/07/11 04:56:24;;;;;;;5.78;3.97;;;;;;;;;;4752595;30;20071;-51
2022/07/11 04:58:54;;;;;;;5.25;4.60;;;;;;;;;;4752653;30;20060;-50
2022/07/11 05:01:21;;;;;;;5.03;3.28;;;;;;;;;;4753071;30;20044;-50
2022/07/11 05:03:48;;;;;;;3.70;2.90;;;;;;;;;;4752472;30;20394;-59
2022/07/11 05:06:15;;;;;;;5.45;3.50;;;;;;;;;;4752553;30;20356;-52
2022/07/11 05:08:44;;;;;;;6.43;3.92;;;;;;;;;;4752826;30;20044;-51
2022/07/11 05:11:14;;;;;;;3.40;2.67;;;;;;;;;;4752935;30;20595;-52
2022/07/11 05:13:41;;;;;;;4.03;3.00;;;;;;;;;;4752505;30;20044;-52
2022/07/11 05:16:09;;;;;;;3.15;2.85;;;;;;;;;;4752837;30;20458;-51
2022/07/11 05:18:37;;;;;;;4.93;2.65;;;;;;;;;;4752469;30;20050;-50
2022/07/11 05:21:05;;;;;;;5.50;3.50;;;;;;;;;;4752003;30;20123;-52
2022/07/11 05:23:32;;;;;;;3.15;2.65;;;;;;;;;;4752443;30;20040;-48
2022/07/11 05:25:59;;;;;;;3.58;2.53;;;;;;;;;;4752116;30;20106;-52
2022/07/11 05:28:26;;;;;;;3.05;2.67;;;;;;;;;;4752114;30;20048;-51
2022/07/11 05:30:54;;;;;;;3.75;2.80;;;;;;;;;;4752535;30;20123;-53
2022/07/11 05:33:23;;;;;;;3.08;2.60;;;;;;;;;;4752203;30;20052;-49
2022/07/11 05:35:50;;;;;;;6.43;2.50;;;;;;;;;;4752420;30;20044;-52
2022/07/11 05:38:17;;;;;;;4.15;3.00;;;;;;;;;;4751503;30;20056;-48
2022/07/11 05:40:44;;;;;;;3.88;3.15;;;;;;;;;;4753017;30;20118;-51
2022/07/11 05:43:12;;;;;;;4.00;2.90;;;;;;;;;;4752388;30;20052;-51
2022/07/11 05:45:39;;;;;;;6.00;3.40;;;;;;;;;;4752646;30;20080;-51
2022/07/11 05:48:06;;;;;;;5.03;2.70;;;;;;;;;;4751921;30;20044;-59
2022/07/11 05:50:34;;;;;;;3.63;3.33;;;;;;;;;;4751956;30;20050;-53
2022/07/11 05:53:02;;;;;;;4.13;2.90;;;;;;;;;;4752200;30;20127;-50
2022/07/11 05:55:30;;;;;;;4.15;3.20;;;;;;;;;;4751666;30;20521;-52
2022/07/11 05:58:00;;;;;;;6.97;4.13;;;;;;;;;;4752441;30;20063;-51
2022/07/11 06:00:27;;;;;;;3.55;2.75;;;;;;;;;;4751929;30;20040;-51
2022/07/11 06:02:54;;;;;;;3.28;2.22;;;;;;;;;;4752829;30;20044;-50
2022/07/11 06:05:22;;;;;;;3.17;2.70;;;;;;;;;;4744605;30;20052;-52
2022/07/11 06:10:34;;;;;;;4.40;2.22;;;;;;;;;;4751693;30;20518;-51
2022/07/11 06:13:02;;;;;;;3.05;2.72;;;;;;;;;;4751350;30;20044;-55
2022/07/11 06:15:29;;;;;;;4.65;2.63;;;;;;;;;;4736070;30;20146;-50
2022/07/11 06:17:56;;;;;;;3.75;2.65;;;;;;;;;;4750958;30;20056;-51
2022/07/11 06:20:24;;;;;;;4.25;2.50;;;;;;;;;;4744699;30;20048;-49
2022/07/11 06:22:53;;;;;;;4.32;2.65;;;;;;;;;;4751840;30;20402;-51
2022/07/11 06:25:20;;;;;;;3.33;2.22;;;;;;;;;;4750250;30;20083;-52
2022/07/11 06:27:48;;;;;;;3.50;2.50;;;;;;;;;;4751549;30;20045;-51
2022/07/11 06:30:19;;;;;;;3.75;2.40;;;;;;;;;;4750851;30;20059;-50
2022/07/11 06:32:46;;;;;;;3.53;2.63;;;;;;;;;;4751499;30;20071;-59
2022/07/11 06:35:17;;;;;;;4.50;2.88;;;;;;;;;;4751218;30;20056;-52
2022/07/11 06:37:44;;;;;;;4.78;3.15;;;;;;;;;;4751042;30;20105;-50
2022/07/11 06:40:12;;;;;;;5.68;2.80;;;;;;;;;;4750986;30;20071;-51
2022/07/11 06:42:39;;;;;;;4.80;2.80;;;;;;;;;;4751050;30;20048;-49
2022/07/11 06:45:07;;;;;;;4.78;2.90;;;;;;;;;;4735383;30;20052;-52
2022/07/11 06:47:34;;;;;;;4.57;2.45;;;;;;;;;;4751262;30;20117;-47
2022/07/11 06:50:02;;;;;;;3.85;2.85;;;;;;;;;;4747815;30;20099;-50
2022/07/11 06:52:30;;;;;;;3.20;2.60;;;;;;;;;;4750976;30;20052;-52
2022/07/11 06:54:58;;;;;;;8.82;3.45;;;;;;;;;;4751212;30;20405;-51
2022/07/11 06:57:25;;;;;;;3.90;2.58;;;;;;;;;;4750804;30;20083;-51
2022/07/11 06:59:53;;;;;;;3.20;2.65;;;;;;;;;;4739953;30;20048;-50
2022/07/11 07:02:20;;;;;;;4.13;2.85;;;;;;;;;;4732984;30;20080;-53
2022/07/11 07:04:48;;;;;;;4.18;2.90;;;;;;;;;;4733521;30;20048;-59
2022/07/11 07:07:15;;;;;;;3.58;2.97;;;;;;;;;;4732925;30;20084;-58
2022/07/11 07:09:42;;;;;;;4.97;3.17;;;;;;;;;;4733197;30;20045;-54
2022/07/11 07:12:10;;;;;;;5.15;2.80;;;;;;;;;;4732964;30;20406;-50
2022/07/11 07:14:38;;;;;;;3.80;2.75;;;;;;;;;;4733436;30;20372;-51
2022/07/11 07:17:05;;;;;;;3.50;2.58;;;;;;;;;;4733007;30;20055;-52
2022/07/11 07:19:33;;;;;;;3.35;2.70;;;;;;;;;;4732973;30;20059;-51
2022/07/11 07:22:00;;;;;;;4.22;2.78;;;;;;;;;;4733369;30;20114;-52
2022/07/11 07:24:29;;;;;;;3.72;2.45;;;;;;;;;;4733164;30;20049;-54
2022/07/11 07:26:57;;;;;;;3.65;2.70;;;;;;;;;;4733204;30;20044;-52
2022/07/11 07:29:26;;;;;;;14.68;9.55;;;;;;;;;;4732831;30;20040;-54
2022/07/11 07:31:53;;;;;;;4.93;3.55;;;;;;;;;;4733074;30;20537;-52
2022/07/11 07:34:21;;;;;;;3.60;3.00;;;;;;;;;;4732569;30;20041;-53
2022/07/11 07:36:48;;;;;;;4.07;3.13;;;;;;;;;;4733207;30;20106;-48
2022/07/11 07:39:15;;;;;;;5.90;3.33;;;;;;;;;;4732920;30;20049;-49
2022/07/11 07:41:43;;;;;;;5.85;3.55;;;;;;;;;;4732798;30;20056;-53
2022/07/11 07:44:10;;;;;;;5.75;2.72;;;;;;;;;;4733328;30;20060;-51
2022/07/11 07:46:38;;;;;;;4.40;2.78;;;;;;;;;;4733092;30;20131;-59
2022/07/11 07:49:05;;;;;;;4.32;3.22;;;;;;;;;;4733090;30;20045;-59
2022/07/11 07:51:33;;;;;;;5.03;2.72;;;;;;;;;;4747195;30;20052;-50
2022/07/11 07:54:00;;;;;;;5.55;2.83;;;;;;;;;;4753214;30;20048;-53
2022/07/11 07:56:28;;;;;;;3.20;2.63;;;;;;;;;;4738083;30;20051;-54
2022/07/11 07:58:56;;;;;;;6.57;2.80;;;;;;;;;;4754433;30;20429;-49
2022/07/11 08:01:35;;;;;;;19.42;11.10;;;;;;;;;;4753955;30;20521;-52
2022/07/11 08:04:08;;;;;;;19.08;8.90;;;;;;;;;;4753294;30;20090;-57
2022/07/11 08:06:37;;;;;;;5.93;3.53;;;;;;;;;;4753597;30;20127;-50
2022/07/11 08:09:05;;;;;;;4.90;3.22;;;;;;;;;;4753039;30;20056;-57
2022/07/11 08:11:33;;;;;;;5.32;3.38;;;;;;;;;;4753583;30;20044;-52
2022/07/11 08:14:03;;;;;;;4.75;3.13;;;;;;;;;;4753219;30;20075;-58
2022/07/11 08:16:31;;;;;;;5.57;3.13;;;;;;;;;;4735212;30;20473;-51
2022/07/11 08:19:03;;;;;;;6.20;3.72;;;;;;;;;;4727926;30;20134;-58
2022/07/11 08:21:32;;;;;;;5.22;3.53;;;;;;;;;;4737941;30;20075;-51
2022/07/11 08:23:59;;;;;;;4.15;3.15;;;;;;;;;;4744368;30;20094;-55
2022/07/11 08:26:27;;;;;;;6.47;4.20;;;;;;;;;;4742681;30;20106;-54
2022/07/11 08:29:01;;;;;;;5.15;3.20;;;;;;;;;;4738350;30;20048;-59
2022/07/11 08:31:29;;;;;;;5.03;3.05;;;;;;;;;;4735622;30;20052;-58
2022/07/11 08:33:59;;;;;;;7.57;3.28;;;;;;;;;;4735673;30;20423;-55
2022/07/11 08:36:34;;;;;;;5.60;3.15;;;;;;;;;;4735759;30;20064;-53
2022/07/11 08:39:03;;;;;;;3.95;3.17;;;;;;;;;;4735050;30;20060;-55
2022/07/11 08:41:31;;;;;;;4.20;3.40;;;;;;;;;;4741031;30;20063;-51
2022/07/11 08:43:59;;;;;;;6.45;3.80;;;;;;;;;;4752668;30;20576;-51
2022/07/11 08:46:28;;;;;;;45.70;28.13;;;;;;;;;;4752315;30;20067;-55
2022/07/11 08:48:58;;;;;;;5.88;4.10;;;;;;;;;;4750474;30;20083;-51
2022/07/11 08:51:27;;;;;;;5.57;3.58;;;;;;;;;;4750970;30;20544;-49
2022/07/11 08:53:55;;;;;;;4.03;3.17;;;;;;;;;;4751295;30;20240;-51
2022/07/11 08:56:24;;;;;;;5.20;3.67;;;;;;;;;;4744078;30;20109;-53
2022/07/11 08:58:53;;;;;;;85.00;41.88;;;;;;;;;;4750625;30;20514;-49
2022/07/11 09:01:29;;;;;;;26.98;10.52;;;;;;;;;;4744514;30;20052;-51
2022/07/11 09:03:58;;;;;;;6.72;4.22;;;;;;;;;;4752180;30;20106;-56
2022/07/11 09:06:26;;;;;;;6.60;3.60;;;;;;;;;;4752677;30;20048;-53
2022/07/11 09:09:00;;;;;;;6.57;3.63;;;;;;;;;;4752547;30;20460;-50
2022/07/11 09:11:29;;;;;;;5.75;3.40;;;;;;;;;;4752430;30;20079;-50
2022/07/11 09:13:56;;;;;;;6.88;3.38;;;;;;;;;;4752428;30;20052;-50
2022/07/11 09:16:28;;;;;;;6.28;3.65;;;;;;;;;;4745395;30;20040;-54
2022/07/11 09:19:01;;;;;;;5.53;3.50;;;;;;;;;;4751702;30;20056;-49
2022/07/11 09:26:59;;;;;;;5.95;3.20;;;;;;;;;;4752183;30;20473;-52
2022/07/11 09:29:27;;;;;;;5.38;3.55;;;;;;;;;;4752183;30;20059;-55
2022/07/11 09:31:55;;;;;;;4.43;3.17;;;;;;;;;;4752545;30;20074;-57
2022/07/11 09:34:26;;;;;;;6.05;3.40;;;;;;;;;;4752381;30;20056;-50
2022/07/11 09:36:56;;;;;;;5.15;3.70;;;;;;;;;;4736971;30;20052;-56
2022/07/11 09:39:26;;;;;;;5.78;3.90;;;;;;;;;;4751870;30;20048;-53
2022/07/11 09:41:54;;;;;;;4.72;3.22;;;;;;;;;;4732443;30;20060;-52
2022/07/11 09:44:24;;;;;;;4.82;3.35;;;;;;;;;;4734083;30;20076;-58
2022/07/11 09:46:52;;;;;;;16.67;13.57;;;;;;;;;;4734342;30;20052;-55
2022/07/11 09:49:37;;;;;;;6.45;4.30;;;;;;;;;;4734322;30;20472;-58
2022/07/11 09:52:12;;;;;;;4.85;3.38;;;;;;;;;;4716581;30;20056;-54
2022/07/11 09:54:56;;;;;;;4.72;3.38;;;;;;;;;;4716915;30;20064;-58
2022/07/11 09:57:33;;;;;;;4.82;3.38;;;;;;;;;;4708752;30;20116;-49
2022/07/11 10:00:08;;;;;;;5.18;3.60;;;;;;;;;;4716568;30;20041;-52
2022/07/11 10:02:36;;;;;;;4.55;3.47;;;;;;;;;;4716274;30;20120;-48
2022/07/11 10:05:04;;;;;;;5.65;3.45;;;;;;;;;;4716503;30;20080;-52
2022/07/11 10:07:32;;;;;;;5.25;3.47;;;;;;;;;;4716782;30;20170;-51
2022/07/11 10:10:00;;;;;;;4.80;3.55;;;;;;;;;;4716300;30;20055;-51
2022/07/11 10:12:29;;;;;;;5.93;3.63;;;;;;;;;;4716504;30;20061;-50
2022/07/11 10:15:00;;;;;;;6.53;3.30;;;;;;;;;;4716220;30;20514;-53
2022/07/11 10:17:42;;;;;;;5.18;3.30;;;;;;;;;;4716291;30;20041;-53
2022/07/11 10:20:44;;;;;;;8.93;6.22;;;;;;;;;;4716176;30;20133;-57
2022/07/11 10:23:23;;;;;;;6.43;3.17;;;;;;;;;;4716377;30;20049;-52
2022/07/11 10:25:58;;;;;;;4.85;3.08;;;;;;;;;;4715864;30;20061;-58
2022/07/11 10:28:31;;;;;;;5.35;3.33;;;;;;;;;;4716300;30;20065;-60
2022/07/11 10:31:03;;;;;;;4.65;3.20;;;;;;;;;;4716119;30;20414;-50
2022/07/11 10:33:31;;;;;;;4.88;2.90;;;;;;;;;;4716130;30;20111;-52
2022/07/11 10:35:58;;;;;;;4.18;3.13;;;;;;;;;;4733766;30;20461;-54
2022/07/11 10:38:26;;;;;;;6.57;3.28;;;;;;;;;;4733607;30;20392;-58
2022/07/11 10:40:55;;;;;;;4.82;3.42;;;;;;;;;;4734110;30;20409;-58
2022/07/11 10:43:22;;;;;;;5.90;3.15;;;;;;;;;;4726519;30;20049;-53
2022/07/11 10:46:03;;;;;;;5.68;3.40;;;;;;;;;;4733400;30;20463;-59
2022/07/11 10:48:33;;;;;;;7.25;4.18;;;;;;;;;;4733519;30;20083;-50
2022/07/11 10:51:23;;;;;;;10.98;4.72;;;;;;;;;;4744374;30;20126;-53
2022/07/11 10:53:52;;;;;;;6.00;3.13;;;;;;;;;;4751424;30;20129;-59
2022/07/11 10:56:34;;;;;;;4.78;3.67;;;;;;;;;;4750974;30;20106;-49
2022/07/11 10:59:21;;;;;;;4.32;3.40;;;;;;;;;;4735155;30;20537;-52
2022/07/11 11:02:14;;;;;;;5.28;3.28;;;;;;;;;;4750967;30;20135;-52
2022/07/11 11:04:48;;;;;;;4.32;3.40;;;;;;;;;;4750803;30;20080;-52
2022/07/11 11:07:41;;;;;;;3.95;2.80;;;;;;;;;;4751084;30;20603;-57
2022/07/11 11:10:21;;;;;;;6.78;3.88;;;;;;;;;;4750860;30;20425;-59
2022/07/11 11:13:10;;;;;;;200.57;61.22;;;;;;;;;;4750881;30;20064;-59
2022/07/11 11:16:20;;;;;;;12.05;6.47;;;;;;;;;;4735236;30;20402;-53
2022/07/11 11:18:48;;;;;;;5.35;3.78;;;;;;;;;;4742641;30;20098;-58
2022/07/11 11:21:17;;;;;;;8.00;4.03;;;;;;;;;;4751128;30;20121;-49
2022/07/11 11:23:45;;;;;;;5.97;4.00;;;;;;;;;;4750664;30;20044;-49
2022/07/11 11:26:19;;;;;;;6.53;4.10;;;;;;;;;;4750640;30;20584;-53
2022/07/11 11:29:05;;;;;;;6.82;4.00;;;;;;;;;;4753061;30;20048;-52
2022/07/11 11:31:33;;;;;;;8.18;4.75;;;;;;;;;;4753728;30;20052;-52
2022/07/11 11:34:02;;;;;;;5.32;4.65;;;;;;;;;;4754069;30;20287;-53
2022/07/11 11:36:31;;;;;;;4.15;3.63;;;;;;;;;;4754284;30;20048;-53
2022/07/11 11:38:58;;;;;;;7.00;4.93;;;;;;;;;;4738909;30;20570;-51
2022/07/11 11:41:30;;;;;;;5.05;4.55;;;;;;;;;;4754190;30;20049;-52
2022/07/11 11:44:03;;;;;;;29.88;20.50;;;;;;;;;;4754185;30;20051;-53
2022/07/11 11:46:35;;;;;;;11.80;8.02;;;;;;;;;;4754082;30;20062;-57
2022/07/11 11:49:04;;;;;;;6.30;5.70;;;;;;;;;;4753691;30;20076;-50
2022/07/11 11:51:32;;;;;;;5.47;4.97;;;;;;;;;;4751104;30;20044;-53
2022/07/11 11:54:02;;;;;;;6.80;5.57;;;;;;;;;;4753630;30;20122;-59
2022/07/11 11:56:34;;;;;;;5.88;5.38;;;;;;;;;;4753539;30;20044;-54
2022/07/11 11:59:12;;;;;;;6.10;5.47;;;;;;;;;;4753634;30;20067;-59
2022/07/11 12:01:46;;;;;;;8.65;6.25;;;;;;;;;;4753466;30;20036;-54
2022/07/11 12:04:15;;;;;;;6.53;5.40;;;;;;;;;;4753738;30;20074;-59
2022/07/11 12:06:44;;;;;;;6.13;5.63;;;;;;;;;;4753789;30;20123;-59
2022/07/11 12:09:15;;;;;;;6.47;5.88;;;;;;;;;;4753488;30;20063;-54
2022/07/11 12:11:46;;;;;;;6.10;5.45;;;;;;;;;;4753388;30;20144;-53
2022/07/11 12:14:15;;;;;;;8.77;6.55;;;;;;;;;;4753326;30;20067;-52
2022/07/11 12:16:46;;;;;;;6.95;6.20;;;;;;;;;;4753334;30;20517;-54
2022/07/11 12:19:22;;;;;;;7.00;6.38;;;;;;;;;;4753069;30;20059;-56
2022/07/11 12:21:51;;;;;;;6.78;6.07;;;;;;;;;;4753102;30;20064;-54
2022/07/11 12:24:20;;;;;;;6.75;5.95;;;;;;;;;;4753164;30;20581;-58
2022/07/11 12:26:48;;;;;;;24.17;19.55;;;;;;;;;;4753492;30;20083;-58
2022/07/11 12:29:22;;;;;;;28.33;18.92;;;;;;;;;;4753507;30;20456;-55
2022/07/11 12:31:54;;;;;;;7.38;6.30;;;;;;;;;;4752819;30;20048;-58
2022/07/11 12:34:45;;;;;;;6.73;6.13;;;;;;;;;;4753341;30;20048;-58
2022/07/11 12:37:14;;;;;;;6.55;5.78;;;;;;;;;;4753363;30;20293;-58
2022/07/11 12:40:03;;;;;;;7.05;5.80;;;;;;;;;;4750563;30;20052;-57
2022/07/11 12:42:33;;;;;;;7.68;6.20;;;;;;;;;;4739102;30;20056;-48
2022/07/11 12:45:11;;;;;;;5.97;5.38;;;;;;;;;;4742879;30;20045;-47
2022/07/11 12:47:40;;;;;;;6.07;5.25;;;;;;;;;;4720156;30;20044;-47
2022/07/11 12:50:16;;;;;;;7.22;5.70;;;;;;;;;;4738953;30;20047;-56
2022/07/11 12:52:47;;;;;;;22.88;14.82;;;;;;;;;;4753069;30;20582;-52
2022/07/11 12:55:29;;;;;;;7.35;6.25;;;;;;;;;;4739437;30;20146;-58
2022/07/11 12:58:13;;;;;;;5.97;5.38;;;;;;;;;;4733955;30;20060;-56
2022/07/11 13:00:59;;;;;;;6.80;6.20;;;;;;;;;;4735220;30;20048;-58
2022/07/11 13:03:29;;;;;;;8.40;5.60;;;;;;;;;;4735100;30;20525;-49
2022/07/11 13:05:59;;;;;;;6.18;5.57;;;;;;;;;;4734651;30;20093;-53
2022/07/11 13:08:46;;;;;;;6.20;5.55;;;;;;;;;;4735172;30;20110;-50
2022/07/11 13:11:17;;;;;;;6.20;5.60;;;;;;;;;;4734674;30;20357;-57
2022/07/11 13:13:49;;;;;;;6.57;5.93;;;;;;;;;;4734632;30;20293;-57
2022/07/11 13:16:18;;;;;;;8.30;5.78;;;;;;;;;;4733880;30;20056;-51
2022/07/11 13:18:45;;;;;;;6.45;5.85;;;;;;;;;;4731799;30;20494;-55
2022/07/11 13:21:14;;;;;;;6.22;5.45;;;;;;;;;;4729284;30;20044;-52
2022/07/11 13:23:42;;;;;;;6.30;5.57;;;;;;;;;;4734846;30;20410;-57
2022/07/11 13:26:10;;;;;;;6.93;5.55;;;;;;;;;;4734336;30;20087;-51
2022/07/11 13:28:38;;;;;;;6.07;5.57;;;;;;;;;;4734548;30;20421;-54
2022/07/11 13:31:05;;;;;;;7.05;5.25;;;;;;;;;;4734384;30;20452;-57
2022/07/11 13:33:43;;;;;;;52.78;26.67;;;;;;;;;;4733904;30;20072;-50
2022/07/11 13:36:10;;;;;;;29.55;18.80;;;;;;;;;;4734463;30;20402;-50
2022/07/11 13:38:38;;;;;;;7.60;6.75;;;;;;;;;;4733433;30;20064;-52
2022/07/11 13:41:06;;;;;;;7.32;6.20;;;;;;;;;;4734097;30;20448;-52
2022/07/11 13:43:40;;;;;;;6.50;5.90;;;;;;;;;;4733945;30;20401;-58
2022/07/11 13:46:09;;;;;;;6.80;6.05;;;;;;;;;;4734463;30;20059;-58
2022/07/11 13:48:41;;;;;;;5.88;5.35;;;;;;;;;;4734317;30;20056;-58
2022/07/11 13:51:10;;;;;;;7.10;5.70;;;;;;;;;;4744997;30;20048;-54
2022/07/11 13:53:38;;;;;;;7.97;7.18;;;;;;;;;;4751973;30;20048;-59
2022/07/11 13:56:06;;;;;;;6.85;5.50;;;;;;;;;;4751363;30;20052;-59
2022/07/11 13:58:34;;;;;;;8.00;6.00;;;;;;;;;;4735955;30;20064;-59
2022/07/11 14:01:02;;;;;;;8.60;6.45;;;;;;;;;;4751538;30;20417;-58
2022/07/11 14:03:31;;;;;;;7.22;6.53;;;;;;;;;;4750725;30;20119;-58
2022/07/11 14:05:58;;;;;;;7.15;6.45;;;;;;;;;;4751661;30;20044;-57
2022/07/11 14:08:26;;;;;;;8.13;6.40;;;;;;;;;;4751818;30;20048;-52
2022/07/11 14:10:53;;;;;;;7.70;6.97;;;;;;;;;;4751367;30;20064;-58
2022/07/11 14:13:21;;;;;;;7.10;6.43;;;;;;;;;;4751421;30;20513;-58
2022/07/11 14:15:49;;;;;;;7.25;6.65;;;;;;;;;;4751571;30;20536;-59
2022/07/11 14:18:19;;;;;;;7.32;6.65;;;;;;;;;;4751203;30;20074;-59
2022/07/11 14:20:47;;;;;;;7.72;6.80;;;;;;;;;;4751569;30;20091;-56
2022/07/11 14:23:14;;;;;;;8.75;6.93;;;;;;;;;;4751266;30;20436;-58
2022/07/11 14:25:42;;;;;;;7.45;6.75;;;;;;;;;;4751378;30;20147;-55
2022/07/11 14:28:09;;;;;;;7.80;6.30;;;;;;;;;;4751450;30;20063;-58
2022/07/11 14:30:37;;;;;;;6.57;5.97;;;;;;;;;;4750941;30;20082;-58
2022/07/11 14:33:04;;;;;;;7.70;6.95;;;;;;;;;;4751419;30;20051;-58
2022/07/11 14:35:32;;;;;;;7.22;6.28;;;;;;;;;;4751607;30;20413;-58
2022/07/11 14:37:59;;;;;;;7.80;7.03;;;;;;;;;;4750745;30;20051;-57
2022/07/11 14:40:27;;;;;;;8.20;7.25;;;;;;;;;;4751370;30;20060;-50
2022/07/11 14:42:55;;;;;;;7.57;6.18;;;;;;;;;;4750504;30;20071;-56
2022/07/11 14:45:23;;;;;;;6.47;5.72;;;;;;;;;;4751242;30;20059;-55
2022/07/11 14:47:50;;;;;;;6.53;5.88;;;;;;;;;;4750942;30;20386;-59
2022/07/11 14:50:19;;;;;;;6.38;5.65;;;;;;;;;;4748027;30;20179;-58
2022/07/11 14:52:46;;;;;;;6.80;5.40;;;;;;;;;;4750806;30;20055;-58
2022/07/11 14:55:14;;;;;;;6.35;5.75;;;;;;;;;;4750597;30;20040;-58
2022/07/11 14:57:41;;;;;;;6.70;6.00;;;;;;;;;;4750906;30;20106;-59
2022/07/11 15:00:14;;;;;;;6.95;6.22;;;;;;;;;;4750749;30;20086;-58
2022/07/11 15:05:28;;;;;;;9.70;7.00;;;;;;;;;;4754394;30;20463;-58
2022/07/11 15:13:27;;;;;;;6.72;6.13;;;;;;;;;;4753935;30;20046;-54